createdAt,value
2023-12-01T10:00:56.057Z,-1.5
2023-12-01T10:10:57.902Z,-1.5
2023-12-01T10:20:59.779Z,-1.5
2023-12-01T10:41:02.953Z,-1.6
2023-12-01T10:51:04.472Z,-1.7
2023-12-01T11:01:05.694Z,-1.8
2023-12-01T11:21:09.227Z,-1.8
2023-12-01T11:31:10.857Z,-1.9
2023-12-01T11:41:12.654Z,-1.8
2023-12-01T11:51:14.352Z,-1.8
2023-12-01T12:01:16.379Z,-1.8
2023-12-01T12:11:17.925Z,-1.7
2023-12-01T12:21:20.001Z,-1.7
2023-12-01T12:31:21.027Z,-1.7
2023-12-01T12:41:22.671Z,-1.7
2023-12-01T12:51:24.254Z,-1.8
2023-12-01T13:01:26.333Z,-1.7
2023-12-01T13:11:27.905Z,-1.6
2023-12-01T13:21:29.306Z,-1.6
2023-12-01T13:31:31.030Z,-1.6
2023-12-01T13:41:32.828Z,-1.7
2023-12-01T14:01:35.647Z,-1.7
2023-12-01T14:21:38.785Z,-1.7
2023-12-01T14:41:42.432Z,-1.6
2023-12-01T15:01:45.644Z,-1.7
2023-12-01T20:22:34.970Z,-2.4
2023-12-01T21:32:46.123Z,-2.4
2023-12-01T21:42:47.656Z,-2.5
2023-12-01T21:52:49.469Z,-2.4
2023-12-01T22:02:51.413Z,-2.5
2023-12-01T22:12:52.674Z,-2.5
2023-12-01T22:22:54.597Z,-2.5
2023-12-01T22:32:56.283Z,-2.5
2023-12-01T22:42:57.976Z,-2.5
2023-12-01T22:52:59.990Z,-2.5
2023-12-01T23:03:02.161Z,-2.6
2023-12-01T23:13:03.185Z,-2.6
2023-12-01T23:23:04.218Z,-2.5
2023-12-01T23:33:06.172Z,-2.5
2023-12-01T23:43:07.394Z,-2.5
2023-12-01T23:53:09.142Z,-2.5
